This is the latest recevied weather packets stored in our database for station/object N0ZO-13. If no packets are shown the sender has not sent any weather packets the latest 10 day(s).
| Time | Temp. | Humidity | Pressure | Rain* | Wind** | Luminosity | Snow |
|---|---|---|---|---|---|---|---|
| 1777328783 | 25.56° C | 71% | 1010.7 hPa | 0 mm | - | 10 W/m² | - |
| 1777327586 | 26.11° C | 70% | 1010.9 hPa | 0 mm | - | 43 W/m² | - |
| 1777324586 | 26.67° C | 69% | 1011.4 hPa | 0 mm | - | 100 W/m² | - |
| 1777319189 | 26.67° C | 69% | 1011.8 hPa | 0 mm | - | 109 W/m² | - |
| 1777317997 | 26.67° C | 69% | 1011.7 hPa | 0 mm | - | 229 W/m² | - |
| 1777313180 | 26.11° C | 69% | 1012.3 hPa | 0 mm | - | 54 W/m² | - |
| 1777311379 | 25° C | 73% | 1012.4 hPa | 0 mm | - | 262 W/m² | - |
| 1777310183 | 25° C | 72% | 1012.7 hPa | 0 mm | - | 54 W/m² | - |
| 1777308381 | 25.56° C | 72% | 1012.8 hPa | 0 mm | - | 251 W/m² | - |
| 1777307185 | 25° C | 73% | 1012.8 hPa | 0 mm | - | 76 W/m² | - |
| 1777303010 | 23.33° C | 77% | 1012.7 hPa | 0 mm | - | 152 W/m² | - |
| 1777301186 | 22.78° C | 79% | 1012.8 hPa | 0 mm | - | 43 W/m² | - |
| 1777299399 | 22.78° C | 79% | 1012.6 hPa | 0 mm | - | 66 W/m² | - |
| 1777293978 | 17.78° C | 91% | 1012 hPa | 0 mm | - | 0 W/m² | - |
| 1777289779 | 16.67° C | 95% | 1011.1 hPa | 0 mm | - | 0 W/m² | - |
| 1777288602 | 15.56° C | 97% | 1010.6 hPa | 0 mm | - | 0 W/m² | - |
| 1777285004 | 16.11° C | 97% | 1009.9 hPa | 0 mm | - | 0 W/m² | - |
| 1777284378 | 16.11° C | 97% | 1009.6 hPa | 0 mm | - | 0 W/m² | - |
| 1777283788 | 16.11° C | 97% | 1009.7 hPa | 0 mm | - | 0 W/m² | - |
| 1777283181 | 16.11° C | 96% | 1009.6 hPa | 0 mm | - | 0 W/m² | - |
| 1777282576 | 16.11° C | 96% | 1009.6 hPa | 0 mm | - | 0 W/m² | - |
| 1777281985 | 16.11° C | 96% | 1009.6 hPa | 0 mm | - | 0 W/m² | - |
| 1777277789 | 16.67° C | 95% | 1009.1 hPa | 0 mm | - | 0 W/m² | - |
| 1777277183 | 16.67° C | 94% | 1009.1 hPa | 0 mm | - | 0 W/m² | - |
| 1777269980 | 17.78° C | 89% | 1009.5 hPa | 0 mm | - | 0 W/m² | - |
* Rain latest hour (hover to see other rain measurements)
** Current wind speed in m/s (hover to see current wind gust speed)